Terminal Aerodrome Forecast
Issued by NWS

Home | Current Version | Previous Version | Text Only | Print | Product List | Glossary On
Versions: 1 2 3 4 5 6 7 8 9 10 11 12 13 14 15 16 17 18 19 20 21 22 23 24 25 26
021
FTUS43 KAPX 191120
TAFTVC
TAF
KTVC 191120Z 1912/2012 23005KT 4SM BR OVC008
      TEMPO 1912/1914 1SM BR OVC005
     FM191400 22005KT 6SM BR OVC009
     FM191700 21004KT P6SM BKN012
     FM192100 00000KT P6SM BKN015
     FM192300 00000KT P6SM BKN150
     FM200900 00000KT P6SM OVC100=

USA.gov is the U.S. government's official web portal to all federal, state and local government web resources and services.